createdAt,value
2019-02-14T00:00:53.761Z,0.00
2019-02-14T00:01:53.746Z,0.00
2019-02-14T00:02:53.751Z,0.00
2019-02-14T00:03:53.724Z,0.00
2019-02-14T00:04:53.738Z,0.00
2019-02-14T00:05:53.703Z,0.00
2019-02-14T00:06:53.710Z,0.00
2019-02-14T00:07:53.685Z,0.00
2019-02-14T00:08:53.672Z,0.00
2019-02-14T00:09:53.691Z,0.00
2019-02-14T00:10:53.698Z,0.00
2019-02-14T00:11:53.652Z,0.00
2019-02-14T00:12:53.645Z,0.00
2019-02-14T00:13:53.634Z,0.00
2019-02-14T00:14:53.655Z,0.00
2019-02-14T00:15:53.606Z,0.00
2019-02-14T00:16:53.590Z,0.00
2019-02-14T00:17:53.580Z,0.00
2019-02-14T00:18:53.567Z,0.00
2019-02-14T00:19:53.560Z,0.00
2019-02-14T00:20:53.595Z,0.00
2019-02-14T00:21:53.545Z,0.00
2019-02-14T00:22:53.536Z,0.00
2019-02-14T00:23:53.517Z,0.00
2019-02-14T00:24:53.505Z,0.00
2019-02-14T00:25:53.512Z,0.00
2019-02-14T00:26:53.492Z,0.00
2019-02-14T00:27:53.500Z,0.00
2019-02-14T00:28:53.558Z,0.00
2019-02-14T00:29:53.461Z,0.00
2019-02-14T00:30:53.457Z,0.00
2019-02-14T00:31:53.437Z,0.00
2019-02-14T00:32:53.426Z,0.00
2019-02-14T00:33:53.424Z,0.00
2019-02-14T00:34:53.414Z,0.00
2019-02-14T00:35:53.417Z,0.00
2019-02-14T00:36:53.395Z,0.00
2019-02-14T00:37:53.395Z,0.00
2019-02-14T00:38:53.362Z,0.00
2019-02-14T00:39:53.356Z,0.00
2019-02-14T00:40:53.354Z,0.00
2019-02-14T00:41:53.333Z,0.00
2019-02-14T00:42:53.323Z,0.00
2019-02-14T00:43:53.328Z,0.00
2019-02-14T00:44:53.299Z,0.00
2019-02-14T00:45:53.316Z,0.00
2019-02-14T00:46:53.287Z,0.00
2019-02-14T00:47:53.266Z,0.00
2019-02-14T00:48:53.259Z,0.00
2019-02-14T00:49:53.292Z,0.00
2019-02-14T00:50:53.255Z,0.00
2019-02-14T00:51:53.223Z,0.00
2019-02-14T00:52:53.217Z,0.00
2019-02-14T00:53:53.203Z,0.00
2019-02-14T00:54:53.193Z,0.00
2019-02-14T00:55:53.199Z,0.00
2019-02-14T00:56:53.202Z,0.00
2019-02-14T00:57:53.173Z,0.00
2019-02-14T00:58:53.183Z,0.00
2019-02-14T00:59:53.153Z,0.00
2019-02-14T01:00:53.131Z,0.00
2019-02-14T01:01:53.158Z,0.00
2019-02-14T01:02:53.110Z,0.00
2019-02-14T01:03:53.099Z,0.00
2019-02-14T01:04:53.102Z,0.00
2019-02-14T01:05:53.082Z,0.00
2019-02-14T01:06:53.105Z,0.00
2019-02-14T01:07:53.071Z,0.00
2019-02-14T01:08:53.071Z,0.00
2019-02-14T01:09:53.038Z,0.00
2019-02-14T01:10:53.038Z,0.00
2019-02-14T01:11:53.062Z,0.00
2019-02-14T01:12:53.006Z,0.00
2019-02-14T01:13:53.003Z,0.00
2019-02-14T01:14:52.987Z,0.00
2019-02-14T01:15:52.975Z,0.00
2019-02-14T01:16:52.979Z,0.00
2019-02-14T01:17:52.962Z,0.00
2019-02-14T01:18:52.943Z,0.00
2019-02-14T01:19:52.937Z,0.00
2019-02-14T01:20:52.938Z,0.00
2019-02-14T01:21:52.945Z,0.00
2019-02-14T01:22:52.903Z,0.00
2019-02-14T01:23:52.914Z,0.00
2019-02-14T01:24:52.887Z,0.00
2019-02-14T01:25:52.872Z,0.00
2019-02-14T01:26:52.873Z,0.00
2019-02-14T01:27:52.890Z,0.00
2019-02-14T01:28:52.855Z,0.00
2019-02-14T01:29:52.835Z,0.00
2019-02-14T01:30:52.825Z,0.00
2019-02-14T01:31:52.845Z,0.00
2019-02-14T01:32:52.818Z,0.00
2019-02-14T01:33:52.791Z,0.00
2019-02-14T01:34:52.785Z,0.00
2019-02-14T01:35:52.792Z,0.00
2019-02-14T01:36:52.772Z,0.00
2019-02-14T01:37:52.769Z,0.00
2019-02-14T01:38:52.777Z,0.00
2019-02-14T01:39:52.734Z,0.00
2019-02-14T01:40:52.735Z,0.00
2019-02-14T01:41:52.732Z,0.00
2019-02-14T01:42:52.704Z,0.00
2019-02-14T01:43:52.686Z,0.00
2019-02-14T01:44:52.705Z,0.00
2019-02-14T01:45:52.686Z,0.00
2019-02-14T01:46:52.708Z,0.00
2019-02-14T01:47:52.658Z,0.00
2019-02-14T01:48:52.654Z,0.00
2019-02-14T01:49:52.623Z,0.00
2019-02-14T01:50:52.627Z,0.00
2019-02-14T01:51:52.650Z,0.00
2019-02-14T01:52:52.623Z,0.00
2019-02-14T01:53:52.583Z,0.00
2019-02-14T01:54:52.572Z,0.00
2019-02-14T01:55:52.584Z,0.00
2019-02-14T01:56:52.551Z,0.00
2019-02-14T01:57:52.554Z,0.00
2019-02-14T01:58:52.542Z,0.00
2019-02-14T01:59:52.530Z,0.00
2019-02-14T02:00:52.509Z,0.00
2019-02-14T02:01:52.501Z,0.00
2019-02-14T02:02:52.528Z,0.00
2019-02-14T02:03:52.507Z,0.00
2019-02-14T02:04:52.480Z,0.00
2019-02-14T02:05:52.477Z,0.00
2019-02-14T02:06:52.451Z,0.00
2019-02-14T02:07:52.460Z,0.00
2019-02-14T02:08:52.428Z,0.00
2019-02-14T02:09:52.421Z,0.00
2019-02-14T02:10:52.421Z,0.00
2019-02-14T02:11:52.395Z,0.00
2019-02-14T02:12:52.431Z,0.00
2019-02-14T02:13:52.388Z,0.00
2019-02-14T02:14:52.390Z,0.00
2019-02-14T02:15:52.357Z,0.00
2019-02-14T02:16:52.350Z,0.00
2019-02-14T02:17:52.356Z,0.00
2019-02-14T02:18:52.324Z,0.00
2019-02-14T02:19:52.325Z,0.00
2019-02-14T02:20:52.317Z,0.00
2019-02-14T02:21:52.316Z,0.00
2019-02-14T02:22:52.313Z,0.00
2019-02-14T02:23:52.287Z,0.00
2019-02-14T02:24:52.273Z,0.00
2019-02-14T02:25:52.250Z,0.00
2019-02-14T02:26:52.249Z,0.00
2019-02-14T02:27:52.249Z,0.00
2019-02-14T02:28:52.231Z,0.00
2019-02-14T02:29:52.208Z,0.00
2019-02-14T02:30:52.201Z,0.00
2019-02-14T02:31:52.225Z,0.00
2019-02-14T02:32:52.187Z,0.00
2019-02-14T02:33:52.188Z,0.00
2019-02-14T02:34:52.167Z,0.00
2019-02-14T02:36:00.206Z,0.00
2019-02-14T02:36:53.140Z,0.00
2019-02-14T02:37:52.173Z,0.00
2019-02-14T02:38:52.149Z,0.00
2019-02-14T02:39:52.106Z,0.00
2019-02-14T02:40:52.094Z,0.00
2019-02-14T02:41:52.086Z,0.00
2019-02-14T02:42:52.074Z,0.00
2019-02-14T02:43:52.101Z,0.00
2019-02-14T02:44:52.080Z,0.00
2019-02-14T02:45:52.053Z,0.00
2019-02-14T02:46:52.031Z,0.00
2019-02-14T02:47:52.026Z,0.00
2019-02-14T02:48:52.024Z,0.00
2019-02-14T02:49:52.000Z,0.00
2019-02-14T02:50:52.006Z,0.00
2019-02-14T02:51:51.992Z,0.00
2019-02-14T02:52:51.998Z,0.00
2019-02-14T02:53:51.970Z,0.00
2019-02-14T02:54:51.961Z,0.00
2019-02-14T02:55:51.949Z,0.00
2019-02-14T02:56:51.928Z,0.00
2019-02-14T02:57:51.923Z,0.00
2019-02-14T02:58:51.927Z,0.00
2019-02-14T02:59:51.896Z,0.00
2019-02-14T03:00:51.889Z,0.00
2019-02-14T03:01:51.894Z,0.00
2019-02-14T03:02:51.865Z,0.00
2019-02-14T03:03:51.875Z,0.00
2019-02-14T03:04:51.864Z,0.00
2019-02-14T03:05:51.840Z,0.00
2019-02-14T03:06:51.838Z,0.00
2019-02-14T03:07:51.832Z,0.00
2019-02-14T03:08:51.832Z,0.00
2019-02-14T03:09:51.807Z,0.00
2019-02-14T03:10:51.800Z,0.00
2019-02-14T03:11:51.814Z,0.00
2019-02-14T03:12:51.776Z,0.00
2019-02-14T03:13:51.778Z,0.00
2019-02-14T03:14:51.750Z,0.00
2019-02-14T03:15:51.739Z,0.00
2019-02-14T03:16:51.735Z,0.00
2019-02-14T03:17:51.716Z,0.00
2019-02-14T03:18:51.735Z,0.00
2019-02-14T03:19:51.719Z,0.00
2019-02-14T03:20:51.679Z,0.00
2019-02-14T03:21:51.686Z,0.00
2019-02-14T03:22:51.671Z,0.00
2019-02-14T03:23:51.680Z,0.00
2019-02-14T03:24:51.644Z,0.00
2019-02-14T03:25:51.639Z,0.00
2019-02-14T03:26:51.636Z,0.00
2019-02-14T03:27:51.617Z,0.00
2019-02-14T03:28:51.635Z,0.00
2019-02-14T03:29:51.625Z,0.00
2019-02-14T03:30:51.586Z,0.00
2019-02-14T03:31:51.576Z,0.00
2019-02-14T03:32:51.568Z,0.00
2019-02-14T03:33:51.559Z,0.00
2019-02-14T03:34:51.550Z,0.00
2019-02-14T03:35:51.534Z,0.00
2019-02-14T03:36:51.526Z,0.00
2019-02-14T03:37:51.523Z,0.00
2019-02-14T03:38:51.526Z,0.00
2019-02-14T03:39:51.497Z,0.00
2019-02-14T03:40:51.476Z,0.00
2019-02-14T03:41:51.466Z,0.00
2019-02-14T03:42:51.472Z,0.00
2019-02-14T03:43:51.494Z,0.00
2019-02-14T03:44:51.443Z,0.00
2019-02-14T03:45:51.433Z,0.00
2019-02-14T03:46:51.436Z,0.00
2019-02-14T03:47:51.403Z,0.00
2019-02-14T03:48:51.398Z,0.00
2019-02-14T03:49:51.408Z,0.00
2019-02-14T03:50:51.377Z,0.00
2019-02-14T03:51:51.370Z,0.00
2019-02-14T03:52:51.387Z,0.00
2019-02-14T03:53:51.371Z,0.00
2019-02-14T03:54:51.344Z,0.00
2019-02-14T03:55:51.319Z,0.00
2019-02-14T03:56:51.322Z,0.00
2019-02-14T03:57:51.306Z,0.00
2019-02-14T03:58:51.294Z,0.00
2019-02-14T03:59:51.311Z,0.00
2019-02-14T04:00:51.279Z,0.00
2019-02-14T04:01:51.257Z,0.00
2019-02-14T04:02:51.258Z,0.00
2019-02-14T04:03:51.243Z,0.00
2019-02-14T04:04:51.250Z,0.00
2019-02-14T04:05:51.221Z,0.00
2019-02-14T04:06:51.224Z,0.00
2019-02-14T04:07:51.200Z,0.00
2019-02-14T04:08:51.192Z,0.00
2019-02-14T04:09:51.223Z,0.00
2019-02-14T04:10:51.175Z,0.00
2019-02-14T04:11:51.175Z,0.00
2019-02-14T04:12:51.152Z,0.00
2019-02-14T04:13:51.142Z,0.00
2019-02-14T04:14:51.147Z,0.00
2019-02-14T04:15:51.125Z,0.00
2019-02-14T04:16:51.102Z,0.00
2019-02-14T04:17:51.113Z,0.00
2019-02-14T04:18:51.086Z,0.00
2019-02-14T04:19:51.094Z,0.00
2019-02-14T04:20:51.078Z,0.00
2019-02-14T04:21:51.054Z,0.00
2019-02-14T04:22:51.046Z,0.00
2019-02-14T04:23:51.041Z,0.00
2019-02-14T04:24:51.054Z,0.00
2019-02-14T04:25:51.046Z,0.00
2019-02-14T04:26:51.010Z,0.00
2019-02-14T04:27:50.998Z,0.00
2019-02-14T04:28:51.008Z,0.00
2019-02-14T04:29:50.970Z,0.00
2019-02-14T04:30:50.973Z,0.00
2019-02-14T04:31:50.986Z,0.00
2019-02-14T04:32:50.944Z,0.00
2019-02-14T04:33:50.935Z,0.00
2019-02-14T04:34:50.923Z,0.00
2019-02-14T04:35:50.948Z,0.00
2019-02-14T04:36:50.914Z,0.00
2019-02-14T04:37:50.893Z,0.00
2019-02-14T04:38:50.883Z,0.00
2019-02-14T04:39:50.886Z,0.00
2019-02-14T04:40:50.887Z,0.00
2019-02-14T04:41:50.850Z,0.00
2019-02-14T04:42:50.849Z,0.00
2019-02-14T04:43:50.827Z,0.00
2019-02-14T04:44:50.817Z,0.00
2019-02-14T04:45:50.843Z,0.00
2019-02-14T04:46:50.799Z,0.00
2019-02-14T04:47:50.787Z,0.00
2019-02-14T04:48:50.777Z,0.00
2019-02-14T04:49:50.766Z,0.00
2019-02-14T04:50:50.787Z,0.00
2019-02-14T04:51:50.748Z,0.00
2019-02-14T04:52:50.736Z,0.00
2019-02-14T04:53:50.726Z,0.00
2019-02-14T04:54:50.718Z,0.00
2019-02-14T04:55:50.724Z,0.00
2019-02-14T04:56:50.696Z,0.00
2019-02-14T04:57:50.692Z,0.00
2019-02-14T04:58:50.675Z,0.00
2019-02-14T04:59:50.669Z,0.00
2019-02-14T05:00:50.673Z,0.00
2019-02-14T05:01:50.647Z,0.00
2019-02-14T05:02:50.645Z,0.00
2019-02-14T05:03:50.625Z,0.00
2019-02-14T05:04:50.645Z,0.00
2019-02-14T05:05:50.625Z,0.00
2019-02-14T05:06:50.605Z,0.00
2019-02-14T05:07:50.589Z,0.00
2019-02-14T05:08:50.575Z,0.00
2019-02-14T05:09:50.570Z,0.00
2019-02-14T05:10:50.569Z,0.00
2019-02-14T05:11:50.564Z,0.00
2019-02-14T05:12:50.550Z,0.00
2019-02-14T05:13:50.525Z,0.00
2019-02-14T05:14:50.532Z,0.00
2019-02-14T05:15:50.526Z,0.00
2019-02-14T05:16:50.487Z,0.00
2019-02-14T05:17:50.487Z,0.00
2019-02-14T05:18:50.487Z,0.00
2019-02-14T05:19:50.461Z,0.00
2019-02-14T05:20:50.453Z,0.00
2019-02-14T05:21:50.469Z,0.00
2019-02-14T05:22:50.439Z,0.00
2019-02-14T05:23:50.420Z,0.00
2019-02-14T05:24:50.406Z,0.00
2019-02-14T05:25:50.416Z,0.00
2019-02-14T05:26:50.399Z,0.00
2019-02-14T05:27:50.382Z,0.00
2019-02-14T05:28:50.369Z,0.00
2019-02-14T05:29:50.359Z,0.00
2019-02-14T05:30:50.354Z,0.00
2019-02-14T05:31:50.362Z,0.00
2019-02-14T05:32:50.357Z,0.00
2019-02-14T05:33:50.324Z,0.00
2019-02-14T05:34:50.303Z,0.00
2019-02-14T05:35:50.328Z,0.00
2019-02-14T05:36:53.710Z,0.00
2019-02-14T05:37:50.283Z,0.00
2019-02-14T05:38:50.281Z,0.00
2019-02-14T05:39:50.258Z,0.00
2019-02-14T05:40:50.269Z,0.00
2019-02-14T05:41:50.255Z,0.00
2019-02-14T05:42:50.228Z,0.00
2019-02-14T05:43:50.216Z,0.00
2019-02-14T05:44:50.232Z,0.00
2019-02-14T05:45:50.218Z,0.00
2019-02-14T05:46:50.200Z,0.00
2019-02-14T05:47:50.181Z,0.00
2019-02-14T05:48:50.161Z,0.00
2019-02-14T05:49:50.192Z,0.00
2019-02-14T05:50:50.167Z,0.00
2019-02-14T05:51:50.150Z,0.00
2019-02-14T05:52:50.131Z,0.00
2019-02-14T05:53:50.117Z,0.00
2019-02-14T05:54:50.118Z,0.00
2019-02-14T05:55:50.094Z,0.00
2019-02-14T05:56:50.103Z,0.00
2019-02-14T05:57:50.080Z,0.00
2019-02-14T05:58:50.065Z,0.00
2019-02-14T05:59:50.058Z,0.00
2019-02-14T06:00:50.041Z,0.00
2019-02-14T06:01:50.043Z,0.00
2019-02-14T06:02:50.025Z,0.00
2019-02-14T06:03:50.046Z,0.00
2019-02-14T06:04:49.998Z,0.00
2019-02-14T06:05:49.994Z,0.00
2019-02-14T06:06:50.003Z,4.00
2019-02-14T06:07:49.989Z,4.00
2019-02-14T06:08:49.958Z,4.00
2019-02-14T06:09:49.963Z,4.00
2019-02-14T06:10:49.970Z,4.00
2019-02-14T06:11:49.944Z,4.00
2019-02-14T06:12:49.937Z,8.00
2019-02-14T06:13:49.928Z,8.00
2019-02-14T06:14:49.895Z,8.00
2019-02-14T06:15:49.896Z,8.00
2019-02-14T06:16:49.907Z,12.00
2019-02-14T06:17:49.877Z,16.00
2019-02-14T06:18:49.856Z,20.00
2019-02-14T06:19:49.866Z,20.00
2019-02-14T06:20:49.834Z,28.00
2019-02-14T06:21:49.825Z,36.00
2019-02-14T06:22:49.826Z,40.00
2019-02-14T06:23:49.814Z,48.00
2019-02-14T06:24:49.807Z,56.00
2019-02-14T06:25:49.786Z,64.00
2019-02-14T06:26:49.776Z,80.00
2019-02-14T06:27:49.796Z,88.00
2019-02-14T06:28:49.760Z,104.00
2019-02-14T06:29:49.753Z,120.00
2019-02-14T06:30:49.736Z,132.00
2019-02-14T06:31:49.725Z,152.00
2019-02-14T06:32:49.723Z,172.00
2019-02-14T06:33:49.701Z,192.00
2019-02-14T06:34:49.711Z,216.00
2019-02-14T06:35:49.686Z,240.00
2019-02-14T06:36:49.679Z,264.00
2019-02-14T06:37:49.715Z,292.00
2019-02-14T06:38:49.655Z,320.00
2019-02-14T06:39:49.644Z,352.00
2019-02-14T06:40:49.635Z,384.00
2019-02-14T06:41:49.618Z,416.00
2019-02-14T06:42:49.621Z,448.00
2019-02-14T06:43:49.613Z,480.00
2019-02-14T06:44:49.590Z,516.00
2019-02-14T06:45:49.597Z,552.00
2019-02-14T06:46:49.585Z,588.00
2019-02-14T06:47:49.599Z,628.00
2019-02-14T06:48:49.552Z,668.00
2019-02-14T06:49:49.537Z,708.00
2019-02-14T06:50:49.534Z,748.00
2019-02-14T06:51:49.531Z,792.00
2019-02-14T06:52:49.551Z,836.00
2019-02-14T06:53:49.496Z,888.00
2019-02-14T06:54:49.500Z,936.00
2019-02-14T06:55:49.475Z,980.00
2019-02-14T06:56:49.468Z,1036.00
2019-02-14T06:57:49.490Z,1096.00
2019-02-14T06:58:49.477Z,1148.00
2019-02-14T06:59:49.436Z,1196.00
2019-02-14T07:00:49.426Z,1252.00
2019-02-14T07:01:49.417Z,1312.00
2019-02-14T07:02:49.417Z,1368.00
2019-02-14T07:03:49.400Z,1444.00
2019-02-14T07:04:49.392Z,1520.00
2019-02-14T07:05:49.378Z,1608.00
2019-02-14T07:06:49.378Z,1676.00
2019-02-14T07:07:49.390Z,1752.00
2019-02-14T07:08:49.354Z,1824.00
2019-02-14T07:09:49.348Z,1892.00
2019-02-14T07:10:49.328Z,1968.00
2019-02-14T07:11:49.318Z,2032.00
2019-02-14T07:12:49.327Z,2100.00
2019-02-14T07:13:49.327Z,2192.00
2019-02-14T07:14:49.287Z,2316.00
2019-02-14T07:15:49.294Z,2408.00
2019-02-14T07:16:49.266Z,2412.00
2019-02-14T07:17:49.275Z,2488.00
2019-02-14T07:18:49.259Z,2540.00
2019-02-14T07:19:49.236Z,2604.00
2019-02-14T07:20:49.233Z,2708.00
2019-02-14T07:21:49.219Z,2828.00
2019-02-14T07:22:49.226Z,2916.00
2019-02-14T07:23:49.191Z,2900.00
2019-02-14T07:24:49.191Z,2944.00
2019-02-14T07:25:49.178Z,2988.00
2019-02-14T07:26:49.173Z,3120.00
2019-02-14T07:27:49.190Z,3416.00
2019-02-14T07:28:49.140Z,3536.00
2019-02-14T07:29:49.135Z,3652.00
2019-02-14T07:30:49.135Z,3752.00
2019-02-14T07:31:49.107Z,3856.00
2019-02-14T07:32:49.114Z,3928.00
2019-02-14T07:33:49.103Z,3964.00
2019-02-14T07:34:49.099Z,4020.00
2019-02-14T07:35:49.069Z,4048.00
2019-02-14T07:36:49.063Z,3880.00
2019-02-14T07:37:49.081Z,3596.00
2019-02-14T07:38:49.038Z,3720.00
2019-02-14T07:39:49.056Z,4104.00
2019-02-14T07:40:49.016Z,3852.00
2019-02-14T07:41:49.009Z,4148.00
2019-02-14T07:42:49.026Z,4712.00
2019-02-14T07:43:48.988Z,4800.00
2019-02-14T07:44:49.038Z,4856.00
2019-02-14T07:45:49.039Z,4884.00
2019-02-14T07:46:48.954Z,4928.00
2019-02-14T07:47:48.967Z,4956.00
2019-02-14T07:48:48.931Z,4976.00
2019-02-14T07:49:48.924Z,4992.00
2019-02-14T07:50:48.915Z,4928.00
2019-02-14T07:51:48.907Z,4980.00
2019-02-14T07:52:48.900Z,5080.00
2019-02-14T07:53:48.878Z,5124.00
2019-02-14T07:54:48.872Z,5048.00
2019-02-14T07:55:48.861Z,5184.00
2019-02-14T07:56:48.851Z,5024.00
2019-02-14T07:57:48.862Z,5012.00
2019-02-14T07:58:48.857Z,5264.00
2019-02-14T07:59:48.821Z,5256.00
2019-02-14T08:00:48.805Z,5328.00
2019-02-14T08:01:48.808Z,5448.00
2019-02-14T08:02:48.799Z,5436.00
2019-02-14T08:03:48.774Z,5508.00
2019-02-14T08:04:48.773Z,5612.00
2019-02-14T08:05:48.758Z,5680.00
2019-02-14T08:06:48.751Z,5768.00
2019-02-14T08:07:48.760Z,6144.00
2019-02-14T08:08:48.729Z,7592.00
2019-02-14T08:09:48.714Z,8576.00
2019-02-14T08:10:48.703Z,9288.00
2019-02-14T08:11:48.706Z,9380.00
2019-02-14T08:12:48.695Z,9360.00
2019-02-14T08:13:48.669Z,9416.00
2019-02-14T08:14:48.680Z,8628.00
2019-02-14T08:15:48.651Z,8652.00
2019-02-14T08:16:48.649Z,8932.00
2019-02-14T08:17:48.651Z,9156.00
2019-02-14T08:18:48.634Z,9160.00
2019-02-14T08:19:48.613Z,9212.00
2019-02-14T08:20:48.597Z,9324.00
2019-02-14T08:21:48.587Z,9584.00
2019-02-14T08:22:48.609Z,9808.00
2019-02-14T08:23:48.567Z,9952.00
2019-02-14T08:24:49.063Z,9260.00
2019-02-14T08:25:48.543Z,7944.00
2019-02-14T08:26:48.536Z,6864.00
2019-02-14T08:27:48.542Z,6628.00
2019-02-14T08:28:48.519Z,7656.00
2019-02-14T08:29:48.498Z,9476.00
2019-02-14T08:30:48.491Z,10884.00
2019-02-14T08:31:48.490Z,11268.00
2019-02-14T08:32:48.485Z,11724.00
2019-02-14T08:33:48.457Z,12000.00
2019-02-14T08:34:48.451Z,12288.00
2019-02-14T08:35:48.439Z,13216.00
2019-02-14T08:36:48.430Z,13664.00
2019-02-14T08:37:48.432Z,12132.00
2019-02-14T08:38:48.411Z,11020.00
2019-02-14T08:39:48.399Z,9776.00
2019-02-14T08:40:48.399Z,8636.00
2019-02-14T08:41:48.393Z,11776.00
2019-02-14T08:42:48.384Z,14560.00
2019-02-14T08:43:48.360Z,15424.00
2019-02-14T08:44:48.353Z,15936.00
2019-02-14T08:45:48.342Z,15552.00
2019-02-14T08:46:48.337Z,14208.00
2019-02-14T08:47:48.340Z,12280.00
2019-02-14T08:48:48.302Z,13152.00
2019-02-14T08:49:48.299Z,15904.00
2019-02-14T08:50:48.276Z,17760.00
2019-02-14T08:51:48.270Z,18208.00
2019-02-14T08:52:48.268Z,17760.00
2019-02-14T08:53:48.261Z,17568.00
2019-02-14T08:54:48.236Z,17472.00
2019-02-14T08:55:48.255Z,18144.00
2019-02-14T08:56:48.214Z,19104.00
2019-02-14T08:57:48.225Z,19104.00
2019-02-14T08:58:48.191Z,18336.00
2019-02-14T08:59:48.229Z,18176.00
2019-02-14T09:00:48.169Z,18880.00
2019-02-14T09:01:48.173Z,19296.00
2019-02-14T09:02:48.167Z,19296.00
2019-02-14T09:03:48.174Z,19392.00
2019-02-14T09:04:48.145Z,19584.00
2019-02-14T09:05:48.122Z,19456.00
2019-02-14T09:06:48.112Z,20768.00
2019-02-14T09:07:54.360Z,21696.00
2019-02-14T09:08:49.088Z,21152.00
2019-02-14T09:09:48.086Z,21568.00
2019-02-14T09:10:48.067Z,21760.00
2019-02-14T09:11:48.055Z,21920.00
2019-02-14T09:12:48.064Z,22272.00
2019-02-14T09:13:48.050Z,22368.00
2019-02-14T09:14:48.022Z,22304.00
2019-02-14T09:15:48.008Z,22112.00
2019-02-14T09:16:48.006Z,16160.00
2019-02-14T09:17:48.012Z,10672.00
2019-02-14T09:18:48.000Z,15840.00
2019-02-14T09:19:47.979Z,22080.00
2019-02-14T09:20:47.956Z,23008.00
2019-02-14T09:21:47.946Z,22752.00
2019-02-14T09:22:47.932Z,23008.00
2019-02-14T09:23:47.966Z,24288.00
2019-02-14T09:24:47.916Z,24320.00
2019-02-14T09:25:47.903Z,23648.00
2019-02-14T09:26:47.888Z,23712.00
2019-02-14T09:27:47.878Z,24768.00
2019-02-14T09:28:47.879Z,24928.00
2019-02-14T09:29:47.863Z,25120.00
2019-02-14T09:30:47.851Z,24832.00
2019-02-14T09:31:47.836Z,24288.00
2019-02-14T09:32:47.823Z,24448.00
2019-02-14T09:33:47.829Z,24000.00
2019-02-14T09:34:47.804Z,23840.00
2019-02-14T09:35:47.801Z,24480.00
2019-02-14T09:36:47.789Z,25504.00
2019-02-14T09:37:47.786Z,25696.00
2019-02-14T09:38:47.779Z,26624.00
2019-02-14T09:39:47.748Z,27328.00
2019-02-14T09:40:47.809Z,26560.00
2019-02-14T09:41:47.737Z,26720.00
2019-02-14T09:42:47.735Z,26688.00
2019-02-14T09:43:47.759Z,26944.00
2019-02-14T09:44:47.704Z,27264.00
2019-02-14T09:45:47.689Z,27488.00
2019-02-14T09:46:47.685Z,27680.00
2019-02-14T09:47:47.671Z,27072.00
2019-02-14T09:48:47.667Z,20544.00
2019-02-14T09:49:47.662Z,11196.00
2019-02-14T09:50:47.635Z,11204.00
2019-02-14T09:51:47.640Z,12120.00
2019-02-14T09:52:47.620Z,11052.00
2019-02-14T09:53:47.607Z,11908.00
2019-02-14T09:54:47.590Z,14080.00
2019-02-14T09:55:47.582Z,17280.00
2019-02-14T09:56:47.565Z,20896.00
2019-02-14T09:57:47.555Z,23392.00
2019-02-14T09:58:47.564Z,25952.00
2019-02-14T09:59:47.543Z,28256.00
2019-02-14T10:00:47.521Z,28800.00
2019-02-14T10:01:47.514Z,29568.00
2019-02-14T10:02:47.502Z,30368.00
2019-02-14T10:03:47.500Z,30944.00
2019-02-14T10:04:47.480Z,30848.00
2019-02-14T10:05:47.466Z,30528.00
2019-02-14T10:06:47.456Z,30016.00
2019-02-14T10:07:47.470Z,31200.00
2019-02-14T10:08:47.456Z,30784.00
2019-02-14T10:09:47.427Z,30880.00
2019-02-14T10:10:47.415Z,32352.00
2019-02-14T10:11:47.402Z,32576.00
2019-02-14T10:12:47.392Z,32096.00
2019-02-14T10:13:47.395Z,20672.00
2019-02-14T10:14:47.376Z,13824.00
2019-02-14T10:15:47.366Z,27424.00
2019-02-14T10:16:47.358Z,34848.00
2019-02-14T10:17:47.347Z,34976.00
2019-02-14T10:18:47.346Z,35936.00
2019-02-14T10:19:47.317Z,35872.00
2019-02-14T10:20:47.312Z,36416.00
2019-02-14T10:21:47.296Z,36960.00
2019-02-14T10:22:47.288Z,37280.00
2019-02-14T10:23:47.288Z,37056.00
2019-02-14T10:24:47.298Z,36960.00
2019-02-14T10:25:47.260Z,37280.00
2019-02-14T10:26:47.244Z,37440.00
2019-02-14T10:27:47.234Z,37120.00
2019-02-14T10:28:47.235Z,37504.00
2019-02-14T10:29:47.207Z,38208.00
2019-02-14T10:30:47.204Z,38368.00
2019-02-14T10:31:47.192Z,38624.00
2019-02-14T10:32:47.200Z,38272.00
2019-02-14T10:33:47.181Z,37024.00
2019-02-14T10:34:47.156Z,28512.00
2019-02-14T10:35:47.175Z,14976.00
2019-02-14T10:36:47.147Z,24480.00
2019-02-14T10:37:47.122Z,36224.00
2019-02-14T10:38:47.137Z,36288.00
2019-02-14T10:39:47.113Z,35360.00
2019-02-14T10:40:47.106Z,35520.00
2019-02-14T10:41:47.092Z,35616.00
2019-02-14T10:42:47.078Z,36160.00
2019-02-14T10:43:48.838Z,36192.00
2019-02-14T10:44:47.048Z,35712.00
2019-02-14T10:45:47.036Z,37024.00
2019-02-14T10:46:47.034Z,37408.00
2019-02-14T10:47:47.018Z,36992.00
2019-02-14T10:48:47.034Z,36640.00
2019-02-14T10:49:47.033Z,36800.00
2019-02-14T10:50:47.006Z,37280.00
2019-02-14T10:51:46.977Z,35904.00
2019-02-14T10:52:46.967Z,25888.00
2019-02-14T10:53:46.961Z,16192.00
2019-02-14T10:54:46.981Z,29216.00
2019-02-14T10:55:46.941Z,37824.00
2019-02-14T10:56:46.922Z,36704.00
2019-02-14T10:57:46.916Z,32352.00
2019-02-14T10:58:46.947Z,27008.00
2019-02-14T10:59:46.893Z,20160.00
2019-02-14T11:00:46.896Z,17152.00
2019-02-14T11:01:46.877Z,20896.00
2019-02-14T11:02:46.883Z,28192.00
2019-02-14T11:03:46.867Z,35296.00
2019-02-14T11:04:47.151Z,38464.00
2019-02-14T11:05:46.837Z,27616.00
2019-02-14T11:06:46.829Z,18944.00
2019-02-14T11:07:46.816Z,33856.00
2019-02-14T11:08:46.821Z,38688.00
2019-02-14T11:09:46.807Z,37536.00
2019-02-14T11:10:46.803Z,34752.00
2019-02-14T11:11:46.768Z,35776.00
2019-02-14T11:12:46.755Z,39744.00
2019-02-14T11:13:46.770Z,38304.00
2019-02-14T11:14:46.727Z,37376.00
2019-02-14T11:15:46.725Z,28960.00
2019-02-14T11:16:46.727Z,20320.00
2019-02-14T11:17:48.702Z,34432.00
2019-02-14T11:18:46.717Z,40608.00
2019-02-14T11:19:46.687Z,39744.00
2019-02-14T11:20:46.665Z,38912.00
2019-02-14T11:21:46.683Z,34848.00
2019-02-14T11:22:48.810Z,21664.00
2019-02-14T11:23:46.640Z,23968.00
2019-02-14T11:24:46.624Z,36736.00
2019-02-14T11:25:46.620Z,35104.00
2019-02-14T11:26:46.605Z,26496.00
2019-02-14T11:27:46.603Z,20864.00
2019-02-14T11:28:46.589Z,26464.00
2019-02-14T11:29:46.567Z,31872.00
2019-02-14T11:30:46.550Z,22176.00
2019-02-14T11:31:46.547Z,29024.00
2019-02-14T11:32:46.538Z,39968.00
2019-02-14T11:33:46.564Z,41344.00
2019-02-14T11:34:46.505Z,41856.00
2019-02-14T11:35:46.511Z,27744.00
2019-02-14T11:36:46.494Z,24544.00
2019-02-14T11:37:46.492Z,38080.00
2019-02-14T11:38:46.480Z,39584.00
2019-02-14T11:39:46.458Z,35744.00
2019-02-14T11:40:46.448Z,23424.00
2019-02-14T11:41:46.434Z,27872.00
2019-02-14T11:42:46.428Z,35808.00
2019-02-14T11:43:46.450Z,30560.00
2019-02-14T11:44:46.402Z,23968.00
2019-02-14T11:45:46.409Z,17984.00
2019-02-14T11:46:51.576Z,28608.00
2019-02-14T11:47:47.365Z,39936.00
2019-02-14T11:48:47.861Z,34176.00
2019-02-14T11:49:46.344Z,27456.00
2019-02-14T11:50:46.336Z,40160.00
2019-02-14T11:51:46.327Z,43072.00
2019-02-14T11:52:46.320Z,27424.00
2019-02-14T11:53:46.334Z,14460.00
2019-02-14T11:54:46.296Z,27808.00
2019-02-14T11:55:46.284Z,27296.00
2019-02-14T11:56:46.279Z,21472.00
2019-02-14T11:57:46.271Z,29088.00
2019-02-14T11:58:46.259Z,22368.00
2019-02-14T11:59:46.245Z,28000.00
2019-02-14T12:00:46.228Z,27968.00
2019-02-14T12:01:54.982Z,17056.00
2019-02-14T12:02:55.004Z,12288.00
2019-02-14T12:03:47.208Z,15132.00
2019-02-14T12:04:46.195Z,30272.00
2019-02-14T12:05:46.181Z,41056.00
2019-02-14T12:06:46.200Z,43808.00
2019-02-14T12:07:46.161Z,44448.00
2019-02-14T12:08:57.748Z,45600.00
2019-02-14T12:09:47.173Z,44576.00
2019-02-14T12:10:46.124Z,42592.00
2019-02-14T12:11:46.116Z,42720.00
2019-02-14T12:12:46.112Z,33216.00
2019-02-14T12:13:46.100Z,31296.00
2019-02-14T12:14:46.109Z,40384.00
2019-02-14T12:15:46.075Z,44480.00
2019-02-14T12:16:46.068Z,43232.00
2019-02-14T12:17:46.056Z,40192.00
2019-02-14T12:18:46.039Z,34304.00
2019-02-14T12:19:46.043Z,31712.00
2019-02-14T12:20:47.886Z,32480.00
2019-02-14T12:21:46.007Z,36704.00
2019-02-14T12:22:46.988Z,43584.00
2019-02-14T12:23:45.984Z,44672.00
2019-02-14T12:24:45.996Z,44224.00
2019-02-14T12:25:46.023Z,32960.00
2019-02-14T12:26:45.951Z,32448.00
2019-02-14T12:27:45.945Z,44768.00
2019-02-14T12:28:45.940Z,45568.00
2019-02-14T12:29:45.943Z,44736.00
2019-02-14T12:30:45.909Z,44768.00
2019-02-14T12:31:45.897Z,45504.00
2019-02-14T12:32:45.890Z,44544.00
2019-02-14T12:33:45.884Z,43808.00
2019-02-14T12:34:45.891Z,43648.00